Weather observations for the past three days for
Fort Morgan Municipal Airport
Metric (Imperial)
Date Time (mdt) Wind (kph) Vis. (km) Weather Sky Cond. Temperature (ºC) Relative Humidity Wind Chill (°C) Heat Index (°C) Pressure Precipitation (cm)
Air Dwpt 6 hour altimeter (cm) sea level (mb) 1 hr 3 hr 6 hr
Max. Min.
04 18:35 NE 30 16.09 Overcast OVC085 17 0 32% 75.62 0.0
04 18:15 NE 31 16.09 Overcast OVC090 18 0 30% 75.62 0.0
04 17:55 NE 28 16.09 Partly Cloudy SCT090 18 0 30% 75.62 0.0
04 17:35 N 30 16.09 Mostly Cloudy BKN090 19 0 28% 75.62 0.0
04 17:15 N 37 G 46 16.09 Partly Cloudy and Breezy SCT095 19 0 28% 75.59 0.0
04 16:55 N 37 G 54 16.09 Fair and Breezy CLR 20 0 26% 75.57 0.0
04 16:35 N 31 G 52 16.09 Fair CLR 20 0 26% 75.54 0.0
04 16:15 N 43 G 54 16.09 Fair and Windy CLR 21 0 25% 75.51 0.0
04 15:55 N 33 G 50 16.09 Fair and Breezy CLR 22 0 23% 75.51 0.0
04 15:35 N 39 G 48 16.09 Fair and Breezy CLR 24 0 21% 25 75.49 0.0
04 15:15 N 41 G 52 16.09 Fair and Breezy CLR 24 -1 19% 24 75.49 0.0
04 14:55 N 33 G 44 16.09 Fair and Breezy CLR 24 -1 19% 24 75.49 0.0
04 14:35 N 33 G 56 16.09 Fair and Breezy CLR 23 -1 20% 75.49 0.0
04 14:15 N 41 G 72 16.09 Fair and Breezy CLR 23 -2 19% 75.49 0.0
04 13:55 NW 50 16.09 Fair and Windy CLR 25 -3 15% 25 75.41 0.0
04 13:35 W 30 16.09 Fair CLR 25 -5 13% 25 75.44 0.0
04 13:15 W 28 G 41 16.09 Fair CLR 25 -5 13% 25 75.44 0.0
04 12:55 SW 19 G 31 16.09 Fair CLR 24 -4 15% 24 75.46 0.0
04 12:15 SW 20 16.09 Fair CLR 23 -4 16% 75.51 0.0
04 11:55 W 22 16.09 Fair CLR 23 -3 17% 75.54 0.0
04 11:35 SW 17 14.48 Fair CLR 21 -3 20% 75.59 0.0
04 11:15 SW 13 16.09 Fair CLR 20 -2 23% 75.59 0.0
04 10:55 SW 13 14.48 Fair CLR 20 -1 24% 75.62 0.0
04 10:35 W 11 16.09 Fair CLR 19 -1 26% 75.64 0.0
04 10:15 SW 9 16.09 Fair CLR 18 0 30% 75.62 0.0
04 09:55 Vrbl 6 11.27 Fair CLR 17 0 32% 75.64 0.0
04 09:35 W 7 G 19 14.48 Fair CLR 16 0 34% 75.64 0.0
04 09:15 W 15 12.87 Fair CLR 15 0 36% 75.64 0.0
04 08:55 W 11 14.48 Fair CLR 14 0 39% 75.67 0.0
04 08:35 W 15 16.09 Fair CLR 14 0 39% 75.67 0.0
04 08:15 W 13 16.09 Fair CLR 12 -1 41% 75.64 0.0
04 07:55 W 13 14.48 Fair CLR 11 0 47% 75.67 0.0
04 07:35 W 13 16.09 Fair CLR 10 0 50% 8 75.67 0.0
04 07:15 S 9 16.09 Fair CLR 9 0 54% 8 75.67 0.0
04 06:55 NW 11 G 22 16.09 Fair CLR 7 -1 57% 5 75.64 0.0
04 06:35 NW 22 16.09 Fair CLR 6 -1 61% 2 75.64 0.0
04 05:55 W 17 16.09 Fair CLR 4 -1 70% 1 75.62 0.0
04 05:35 W 17 16.09 Fair CLR 4 -1 70% 1 75.64 0.0
04 05:15 W 20 16.09 Fair CLR 4 -1 70% 0 75.62 0.0
04 04:55 SW 17 16.09 Fair CLR 4 -1 70% 1 75.64 0.0
04 04:35 W 11 16.09 Fair CLR 6 0 66% 4 75.64 0.0
04 04:15 W 13 16.09 Fair CLR 5 -1 66% 2 75.64 0.0
04 03:55 W 9 16.09 Fair CLR 6 -1 61% 4 75.64 0.0
04 03:35 W 11 16.09 Fair CLR 6 0 66% 4 75.67 0.0
04 03:15 Calm 16.09 Fair CLR 8 -1 53% 75.67 0.0
04 02:55 N 15 16.09 Fair CLR 8 0 57% 6 75.67 0.0
04 02:35 N 19 16.09 Fair CLR 8 0 57% 5 75.69 0.0
04 02:15 N 19 16.09 Fair CLR 9 0 54% 7 75.69 0.0
04 01:55 N 22 16.09 Fair CLR 9 0 54% 6 75.69 0.0
04 01:35 N 22 16.09 Fair CLR 10 0 50% 7 75.69 0.0
04 01:15 N 22 16.09 Fair CLR 9 0 54% 6 75.72 0.0
04 00:55 N 20 16.09 Fair CLR 10 0 50% 8 75.74 0.0
04 00:35 N 22 16.09 Fair CLR 10 0 50% 7 75.74 0.0
04 00:15 N 15 16.09 Fair CLR 9 -1 50% 7 75.72 0.0
03 23:55 NE 11 16.09 Fair CLR 9 -2 46% 8 75.72 0.0
03 23:35 NE 15 16.09 Fair CLR 10 -3 40% 8 75.74 0.0
03 23:15 NE 15 16.09 Fair CLR 11 -3 38% 75.77 0.0
03 22:55 NE 15 16.09 Fair CLR 12 -3 35% 75.77 0.0
03 22:35 N 22 16.09 Fair CLR 15 -3 29% 75.77 0.0
03 22:15 N 24 16.09 Partly Cloudy SCT110 15 -3 29% 75.79 0.0
03 21:55 NE 6 16.09 Mostly Cloudy BKN110 15 -4 27% 75.79 0.0
03 21:35 NE 11 16.09 Partly Cloudy SCT110 17 -3 25% 75.79 0.0
03 21:15 SW 7 16.09 A Few Clouds FEW120 15 -4 27% 75.79 0.0
03 20:55 Calm 16.09 A Few Clouds FEW120 19 -4 21% 75.77 0.0
03 20:35 Calm 16.09 Partly Cloudy SCT120 18 -4 22% 75.74 0.0
03 20:15 Calm 16.09 Partly Cloudy SCT120 18 -3 24% 75.74 0.0
03 19:55 Calm 16.09 Fair CLR 18 -2 26% 75.72 0.0
03 19:35 SE 7 16.09 A Few Clouds FEW120 19 -1 26% 75.74 0.0
03 19:15 SE 7 16.09 Partly Cloudy SCT120 21 -3 20% 75.74 0.0
03 18:55 SE 7 16.09 Fair CLR 21 -3 20% 75.74 0.0
03 18:35 E 11 16.09 Fair CLR 22 -4 17% 75.74 0.0
03 18:15 E 11 16.09 Fair CLR 22 -4 17% 75.77 0.0
03 17:55 E 9 16.09 Fair CLR 23 -5 15% 75.77 0.0
03 17:35 Vrbl 7 16.09 Fair CLR 23 -5 15% 75.79 0.0
03 17:15 Calm 16.09 Fair CLR 23 -5 15% 75.79 0.0
03 16:55 Vrbl 6 16.09 Fair CLR 23 -5 15% 75.79 0.0
03 16:35 N 13 16.09 Fair CLR 23 -5 15% 75.79 0.0
03 16:15 NW 15 G 24 16.09 Fair CLR 23 -5 15% 75.82 0.0
03 15:55 Vrbl 11 G 20 16.09 Fair CLR 23 -4 16% 75.84 0.0
03 15:35 N 15 G 28 16.09 Fair CLR 24 -4 15% 24 75.87 0.0
03 15:15 N 17 16.09 Fair CLR 24 -4 15% 24 75.9 0.0
03 14:55 NE 13 G 24 16.09 Fair CLR 23 -4 16% 75.92 0.0
03 14:35 E 13 16.09 Fair CLR 22 -3 19% 75.97 0.0
03 14:15 E 11 16.09 Fair CLR 22 -4 17% 75.97 0.0
03 13:55 Vrbl 9 16.09 Fair CLR 22 -3 19% 76 0.0
03 13:35 Vrbl 11 16.09 Fair CLR 21 -4 18% 76.02 0.0
03 13:15 Calm 16.09 Fair CLR 21 -4 18% 76.05 0.0
03 12:55 Calm 16.09 Fair CLR 20 -4 20% 76.07 0.0
03 12:35 Vrbl 9 16.09 Fair CLR 20 -4 20% 76.1 0.0
03 12:15 E 7 16.09 Fair CLR 20 -4 20% 76.12 0.0
03 11:55 Vrbl 9 16.09 Fair CLR 19 -4 21% 76.15 0.0
03 11:35 Vrbl 9 16.09 Fair CLR 19 -4 21% 76.17 0.0
03 11:15 Vrbl 9 G 22 16.09 Fair CLR 19 -3 22% 76.17 0.0
03 10:55 E 11 G 22 14.48 Fair CLR 18 -2 26% 76.2 0.0
03 10:35 NE 13 G 26 16.09 Fair CLR 19 -2 24% 76.2 0.0
03 10:15 N 17 G 26 16.09 Fair CLR 18 -3 24% 76.2 0.0
03 09:55 N 17 G 26 16.09 Fair CLR 17 -4 24% 76.2 0.0
03 09:35 N 19 16.09 Fair CLR 17 -3 25% 76.2 0.0
03 09:15 Vrbl 9 G 20 16.09 Fair CLR 16 -3 27% 76.23 0.0
03 08:55 NE 13 16.09 Fair CLR 15 -3 29% 76.23 0.0
03 08:35 N 17 G 28 16.09 Fair CLR 15 -5 25% 76.23 0.0
03 08:15 N 22 16.09 Fair CLR 14 -6 25% 76.23 0.0
03 07:55 N 17 16.09 Fair CLR 12 -7 26% 76.23 0.0
03 07:35 W 13 16.09 Fair CLR 10 -7 30% 8 76.23 0.0
03 07:15 W 17 16.09 Fair CLR 7 -4 46% 4 76.2 0.0
03 06:55 W 11 16.09 Fair CLR 5 -4 53% 3 76.17 0.0
03 06:35 W 15 16.09 Fair CLR 4 -5 52% 1 76.15 0.0
03 06:15 W 11 16.09 Fair CLR 5 -5 49% 3 76.15 0.0
03 05:55 W 17 16.09 Fair CLR 5 -5 49% 2 76.1 0.0
03 05:35 W 9 16.09 Fair CLR 5 -5 49% 3 76.12 0.0
03 05:15 W 20 G 30 16.09 Fair CLR 5 -5 49% 1 76.1 0.0
03 04:35 W 19 16.09 Fair CLR 4 -5 52% 0 76.12 0.0
03 04:15 SW 15 16.09 Fair CLR 6 -5 46% 3 76.12 0.0
03 03:55 SW 15 16.09 Fair CLR 6 -5 46% 3 76.12 0.0
03 03:35 W 15 16.09 Fair CLR 7 -6 39% 5 76.15 0.0
03 03:15 SW 17 16.09 A Few Clouds FEW120 9 -6 34% 7 76.15 0.0
03 02:55 SW 9 2.82 Partly Cloudy with Haze SCT120 9 -6 34% 8 76.17 0.0
03 02:35 SW 13 16.09 A Few Clouds FEW120 9 -6 34% 7 76.17 0.0
03 02:15 W 19 16.09 Fair CLR 10 -6 32% 8 76.2 0.0
03 01:55 W 15 16.09 Fair CLR 9 -6 34% 7 76.2 0.0
03 01:35 W 13 16.09 Fair CLR 9 -5 37% 7 76.2 0.0
03 01:15 W 9 16.09 Fair CLR 10 -5 35% 9 76.23 0.0
03 00:55 W 11 16.09 Fair CLR 9 -5 37% 8 76.23 0.0
03 00:35 W 13 16.09 Fair CLR 9 -5 37% 7 76.23 0.0
03 00:15 W 13 16.09 Fair CLR 10 -5 35% 8 76.23 0.0
02 23:55 SW 11 16.09 Fair CLR 10 -5 35% 9 76.23 0.0
02 23:35 W 11 16.09 Fair CLR 11 -7 28% 76.23 0.0
02 23:15 SW 7 16.09 Fair CLR 12 -7 26% 76.23 0.0
02 22:55 SW 6 16.09 Fair CLR 13 -7 24% 76.23 0.0
02 22:35 SW 7 16.09 Fair CLR 13 -8 23% 76.23 0.0
02 22:15 SW 7 16.09 Fair CLR 12 -8 24% 76.23 0.0
02 21:55 SW 9 16.09 Fair CLR 14 -8 21% 76.23 0.0
02 21:35 S 11 16.09 Fair CLR 14 -7 23% 76.23 0.0
02 21:15 S 13 16.09 Fair CLR 14 -7 23% 76.23 0.0
02 20:55 S 11 16.09 Fair CLR 15 -7 21% 76.2 0.0
02 20:35 S 9 16.09 Fair CLR 15 -8 20% 76.2 0.0
02 20:15 S 9 16.09 Fair CLR 15 -7 21% 76.17 0.0
02 19:55 S 11 16.09 Fair CLR 16 -9 17% 76.17 0.0
02 19:35 S 9 16.09 Fair CLR 18 -10 14% 76.17 0.0
02 19:15 S 13 16.09 Fair CLR 20 -10 12% 76.17 0.0
02 18:55 S 17 16.09 Fair CLR 21 -12 10% 76.2 0.0
02 18:35 S 17 16.09 Fair CLR 22 -11 10% 76.2 0.0
02 17:35 SW 15 16.09 Fair CLR 22 -11 10% 76.25 0.0
02 17:15 S 15 16.09 Fair CLR 23 -10 10% 76.25 0.0
02 16:55 Vrbl 9 G 19 16.09 Fair CLR 23 -10 10% 76.28 0.0
02 16:35 S 11 G 20 16.09 Fair CLR 23 -10 10% 76.28 0.0
02 16:15 SW 11 16.09 Fair CLR 22 -10 11% 76.3 0.0
02 15:55 S 11 16.09 Fair CLR 22 -10 11% 76.33 0.0
02 15:35 W 20 16.09 Fair CLR 23 -10 10% 76.35 0.0
02 15:15 Vrbl 13 G 24 16.09 Fair CLR 22 -11 10% 76.38 0.0
02 14:55 Vrbl 11 16.09 Fair CLR 22 -10 11% 76.38 0.0
02 14:35 Vrbl 11 G 24 16.09 Fair CLR 21 -9 12% 76.4 0.0
02 14:15 NW 15 G 28 16.09 Fair CLR 22 -10 11% 76.43 0.0
02 13:55 Vrbl 11 16.09 Fair CLR 21 -9 12% 76.43 0.0
02 13:35 Vrbl 7 G 20 16.09 Fair CLR 20 -9 13% 76.45 0.0
02 13:15 Vrbl 9 G 20 16.09 Fair CLR 20 -7 16% 76.48 0.0
02 12:55 SW 13 16.09 Fair CLR 19 -7 17% 76.5 0.0
02 12:35 Vrbl 7 G 22 16.09 Fair CLR 19 -6 18% 76.53 0.0
02 12:15 Calm 16.09 Fair CLR 18 -6 19% 76.56 0.0
02 11:55 Calm 16.09 Fair CLR 18 -6 19% 76.56 0.0
02 11:35 SW 7 G 24 16.09 Fair CLR 18 -5 21% 76.58 0.0
02 11:15 W 13 16.09 Fair CLR 17 -4 24% 76.61 0.0
02 10:55 Vrbl 11 16.09 Fair CLR 16 -3 27% 76.61 0.0
02 10:35 W 9 G 20 16.09 Fair CLR 15 -3 29% 76.63 0.0
02 10:15 W 17 16.09 Fair CLR 14 -3 31% 76.63 0.0
02 09:55 W 13 16.09 Fair CLR 12 -3 35% 76.63 0.0
02 09:35 W 15 16.09 Fair CLR 11 -3 38% 76.66 0.0
02 09:15 W 17 16.09 Fair CLR 9 -3 43% 7 76.66 0.0
02 08:55 W 15 16.09 Fair CLR 8 -3 46% 6 76.66 0.0
02 08:35 SW 17 16.09 Fair CLR 7 -3 49% 4 76.68 0.0
02 08:15 SW 13 16.09 Fair CLR 6 -2 57% 4 76.68 0.0
02 07:55 SW 11 16.09 Fair CLR 5 -2 61% 3 76.68 0.0
02 07:35 W 11 16.09 Fair CLR 4 -3 61% 2 76.68 0.0
02 07:15 W 9 16.09 Fair CLR 2 -3 70% -0 76.66 0.0
02 06:55 W 9 16.09 Fair CLR 1 -3 75% -2 76.66 0.0
02 06:35 W 13 16.09 Fair CLR 0 -4 75% -4 76.66 0.0
02 06:15 W 9 16.09 Fair CLR -1 -4 80% -4 76.63 0.0
02 05:55 W 9 16.09 Fair CLR -2 -5 80% -5 76.63 0.0
02 05:35 N 7 16.09 Fair CLR -1 -4 80% -3 76.63 0.0
02 05:15 N 9 16.09 Fair CLR -1 -4 80% -4 76.61 0.0
02 04:55 N 13 16.09 Fair CLR 0 -4 75% -4 76.61 0.0
02 04:35 N 19 16.09 Fair CLR 0 -4 75% -5 76.61 0.0
02 04:15 N 19 16.09 Fair CLR 0 -4 75% -5 76.61 0.0
02 03:55 N 15 16.09 Fair CLR 0 -4 75% -4 76.61 0.0
02 03:35 N 19 16.09 Fair CLR 1 -4 70% -3 76.58 0.0
02 03:15 N 19 16.09 Fair CLR 1 -4 70% -3 76.61 0.0
02 02:55 N 15 16.09 Fair CLR 0 -4 75% -4 76.61 0.0
02 02:35 N 13 16.09 Fair CLR 1 -4 70% -2 76.61 0.0
02 02:15 N 15 16.09 Fair CLR 2 -5 60% -2 76.61 0.0
02 01:55 N 19 16.09 Fair CLR 2 -5 60% -2 76.61 0.0
02 01:15 NE 17 16.09 Fair CLR 2 -5 60% -2 76.61 0.0
02 00:55 NE 17 16.09 Fair CLR 2 -6 56% -2 76.61 0.0
02 00:35 NE 15 16.09 Fair CLR 3 -6 52% -0 76.61 0.0
02 00:15 NE 15 16.09 Fair CLR 4 -6 48% 1 76.61 0.0
01 23:55 N 19 16.09 Fair CLR 5 -6 45% 2 76.58 0.0
01 23:35 N 19 16.09 Fair CLR 6 -6 42% 3 76.58 0.0
01 23:15 N 19 16.09 Fair CLR 7 -7 37% 4 76.56 0.0
01 22:55 N 17 16.09 Fair CLR 7 -7 37% 4 76.56 0.0
01 22:35 N 11 16.09 Fair CLR 7 -7 37% 5 76.53 0.0
01 22:15 N 15 16.09 Fair CLR 7 -7 37% 5 76.53 0.0
01 21:55 N 13 16.09 Fair CLR 8 -7 34% 6 76.53 0.0
01 21:35 N 13 16.09 Fair CLR 8 -7 34% 6 76.5 0.0
01 21:15 N 11 16.09 Fair CLR 8 -7 34% 6 76.5 0.0
01 20:55 N 13 16.09 Fair CLR 8 -7 34% 6 76.48 0.0
01 20:35 N 13 16.09 Fair CLR 9 -7 32% 7 76.45 0.0
01 20:15 N 13 16.09 A Few Clouds FEW100 10 -7 30% 8 76.43 0.0
01 19:55 N 13 16.09 Mostly Cloudy BKN100 11 -8 26% 76.4 0.0
01 19:35 NE 17 16.09 Mostly Cloudy BKN110 14 -8 21% 76.4 0.0
01 19:15 N 19 G 30 16.09 Partly Cloudy SCT110 15 -8 20% 76.38 0.0
01 18:55 N 19 16.09 Fair CLR 16 -8 19% 76.38 0.0
Date Time (mdt) Wind (kph) Vis. (km) Weather Sky Cond. Air Dwpt Max. Min. Relative Humidity Wind Chill (°C) Heat Index (°C) altimeter (cm) sea level (mb) 1 hr 3 hr 6 hr
6 hour
Temperature (ºC) Pressure Precipitation (cm)